Terminal Aerodrome Forecast
Issued by NWS St Louis, MO

Home | Current Version | Previous Version | Text Only | Print | Product List | Glossary On
Versions: 1 2 3 4 5 6 7 8 9 10 11 12 13 14 15 16 17 18 19 20
000
FTUS43 KLSX 231700
TAFCOU
TAF
KCOU 231730Z 2318/2418 15008KT 4SM -RA BR OVC006
     FM240300 29010KT 4SM -RA BR OVC006
     FM240800 30017G27KT 5SM -RASN OVC010
     FM241200 29018G28KT P6SM OVC015=

USA.gov is the U.S. government's official web portal to all federal, state and local government web resources and services.